Latest Weather Observations for Dennes Point

IDT60901

Issued at 12:31 pm EST Wednesday 5 August 2015 (issued every 10 minutes, with the page automatically refreshed every 10 minutes)

About weather observations | Map of Hobart area stations | Latest observations for Hobart area | Other Formats
Station Details ID: 094255 Name: DENNES POINT Lat: -43.06 Lon: 147.36 Height: 5.67 m
Data from the previous 72 hours. | See also: Recent months at Dennes Point
Date/Time
EST
Tmp

°C
App
Tmp
°C
Dew
Point
°C
Rel
Hum
%
Delta-T

°C
Wind Press
QNH
hPa
Press
MSL
hPa
Rain
since
9 am
mm
Dir
 
Spd
km/h
Gust
km/h
Spd
kts
Gust
kts
05/12:30pm 6.0 1.3 3.2 82 1.2 WSW 17 24 9 13 1001.7 1001.8 1.0
05/12:08pm 4.6 -4.1 2.1 84 1.0 WSW 37 56 20 30 1001.9 1002.0 1.0
05/12:00pm 4.5 -4.3 1.5 81 1.2 W 37 57 20 31 1001.8 1001.9 0.8
05/11:57am 5.0 -2.8 1.8 80 1.3 W 32 57 17 31 1001.8 1001.9 0.6
05/11:30am 5.4 -1.6 2.2 80 1.3 W 28 43 15 23 1001.8 1001.9 0.6
05/11:00am 5.7 -1.2 2.4 79 1.4 W 28 35 15 19 1001.9 1002.0 0.6
05/10:30am 5.3 -1.6 2.5 82 1.1 W 28 41 15 22 1001.6 1001.7 0.6
05/10:00am 4.6 -3.7 2.0 83 1.0 WSW 35 48 19 26 1001.7 1001.8 0.4
05/09:46am 4.4 -4.9 0.4 75 1.5 W 39 67 21 36 1001.6 1001.7 0.2
05/09:30am 5.3 -2.8 0.9 73 1.7 W 33 43 18 23 1001.5 1001.6 0.0
05/09:13am 5.4 -2.8 0.6 71 1.9 W 33 48 18 26 1001.3 1001.4 0.0
05/09:00am 5.2 -0.9 0.6 72 1.8 W 22 28 12 15 1001.5 1001.6 5.8
05/08:30am 4.1 -4.1 0.4 77 1.4 W 33 48 18 26 1001.3 1001.4 5.8
05/08:23am 4.4 -3.8 0.6 76 1.5 W 33 48 18 26 1001.2 1001.3 5.8
05/08:00am 3.9 -2.3 -0.3 74 1.6 W 22 30 12 16 1001.1 1001.2 5.6
05/07:30am 3.7 -4.4 -0.1 76 1.4 W 32 39 17 21 1000.9 1001.0 5.6
05/07:00am 3.6 -3.0 -0.4 75 1.5 WNW 24 30 13 16 1000.6 1000.7 5.6
05/06:30am 4.1 -4.1 -0.7 71 1.8 WSW 32 43 17 23 1000.2 1000.3 5.6
05/06:00am 3.6 -2.7 -1.3 70 1.8 WSW 22 28 12 15 1000.2 1000.3 5.6
05/05:30am 3.7 -4.8 -1.6 68 1.9 WSW 33 48 18 26 1000.2 1000.3 5.6
05/05:20am 3.7 -3.9 -2.0 66 2.0 WSW 28 46 15 25 999.9 1000.0 5.6
05/05:00am 3.7 -3.4 -1.3 70 1.8 W 26 33 14 18 999.9 1000.0 5.6
05/04:30am 3.6 -4.2 -1.0 72 1.7 WSW 30 39 16 21 999.4 999.5 5.6
05/04:00am 2.5 -4.1 -0.6 80 1.1 SW 24 33 13 18 999.4 999.5 5.6
05/03:34am 3.7 -4.7 -0.9 72 1.7 WSW 33 67 18 36 998.6 998.7 5.6
05/03:32am 3.9 -3.4 -0.3 74 1.6 WSW 28 48 15 26 998.9 999.0 5.6
05/03:30am 3.7 -2.9 -0.3 75 1.5 WSW 24 43 13 23 998.9 999.0 5.6
05/03:00am 3.0 -4.6 0.4 83 1.0 WSW 30 37 16 20 998.4 998.5 5.6
05/02:42am 3.2 -3.3 0.3 81 1.1 SW 24 37 13 20 998.8 998.9 5.6
05/02:30am 3.9 -5.5 0.2 77 1.4 WSW 39 57 21 31 998.3 998.4 5.6
05/02:22am 3.9 -5.1 0.1 76 1.4 WSW 37 57 20 31 997.9 998.0 5.6
05/02:00am 4.4 -5.6 0.9 78 1.4 WSW 43 59 23 32 997.4 997.5 5.6
05/01:41am 4.7 -3.4 1.0 77 1.4 WSW 33 56 18 30 997.2 997.3 5.6
05/01:30am 4.5 -3.4 1.2 79 1.3 WSW 32 41 17 22 997.3 997.4 5.6
05/01:16am 4.8 -2.6 1.8 81 1.2 WSW 30 48 16 26 997.2 997.3 5.6
05/01:00am 4.0 -1.9 1.7 85 0.9 WSW 22 32 12 17 997.1 997.2 5.6
05/12:30am 4.8 -0.4 2.3 84 1.0 SW 19 28 10 15 996.7 996.8 5.2
05/12:00am 5.5 -2.1 2.7 82 1.2 WSW 32 50 17 27 996.5 996.6 5.0
 
Date/Time
EST
Tmp

°C
App
Tmp
°C
Dew
Point
°C
Rel
Hum
%
Delta-T

°C
Wind Press
QNH
hPa
Press
MSL
hPa
Rain
since
9 am
mm
Dir
 
Spd
km/h
Gust
km/h
Spd
kts
Gust
kts
04/11:47pm 5.7 -1.9 2.9 82 1.2 WSW 32 52 17 28 996.0 996.0 5.0
04/11:30pm 5.7 0.0 3.0 83 1.1 W 22 32 12 17 996.1 996.2 4.8
04/11:00pm 6.6 -0.6 3.2 79 1.4 W 30 37 16 20 996.0 996.0 4.2
04/10:30pm 6.5 -0.3 3.1 79 1.4 W 28 35 15 19 996.5 996.6 4.2
04/10:00pm 6.4 0.3 2.7 77 1.5 WNW 24 37 13 20 996.3 996.4 4.2
04/09:30pm 6.1 1.7 2.9 80 1.3 WNW 15 22 8 12 996.7 996.8 4.2
04/09:00pm 6.5 0.1 3.3 80 1.4 WNW 26 37 14 20 997.8 997.9 4.0
04/08:30pm 6.6 1.6 3.4 80 1.3 W 19 30 10 16 998.1 998.2 3.8
04/08:00pm 6.7 1.6 4.2 84 1.1 NW 20 32 11 17 998.2 998.3 3.8
04/07:30pm 7.0 0.0 4.3 83 1.2 WNW 30 41 16 22 998.7 998.8 3.2
04/07:00pm 7.0 0.1 4.5 84 1.1 W 30 39 16 21 998.5 998.6 3.2
04/06:30pm 7.8 2.4 4.7 81 1.4 WSW 22 41 12 22 998.7 998.8 1.6
04/06:00pm 8.8 4.3 4.0 72 2.1 WNW 17 28 9 15 998.9 999.0 0.4
04/05:30pm 9.1 4.0 3.3 67 2.5 WNW 19 28 10 15 998.8 998.9 0.0
04/05:00pm 9.7 5.3 2.8 62 3.0 WNW 15 26 8 14 999.4 999.5 0.0
04/04:30pm 9.7 5.0 3.4 65 2.7 NW 17 32 9 17 999.7 999.8 0.0
04/04:00pm 10.1 4.5 3.2 62 3.0 WNW 22 37 12 20 1000.7 1000.8 0.0
04/03:30pm 10.1 4.9 3.6 64 2.8 NW 20 35 11 19 1001.4 1001.5 0.0
04/03:00pm 10.5 5.6 4.0 64 2.9 NW 19 33 10 18 1002.1 1002.1 0.0
04/02:30pm 10.5 5.4 3.3 61 3.1 WNW 19 33 10 18 1002.6 1002.6 0.0
04/02:00pm 10.2 5.0 3.3 62 3.0 WNW 20 39 11 21 1003.3 1003.3 0.0
04/01:30pm 10.2 5.3 3.9 65 2.8 N 19 33 10 18 1004.2 1004.2 0.0
04/01:00pm 9.9 4.7 3.4 64 2.8 N 20 33 11 18 1004.9 1004.9 0.0
04/12:30pm 9.6 4.0 3.4 65 2.7 N 22 37 12 20 1005.8 1005.8 0.0
04/12:00pm 9.0 2.6 3.4 68 2.4 N 26 39 14 21 1006.6 1006.6 0.0
04/11:30am 8.6 2.5 2.6 66 2.5 NNW 24 35 13 19 1007.5 1007.5 0.0
04/11:00am 8.4 1.9 2.8 68 2.4 NW 26 39 14 21 1008.1 1008.1 0.0
04/10:30am 8.3 4.6 2.1 65 2.6 NW 11 19 6 10 1008.6 1008.6 0.0
04/10:00am 7.8 2.5 1.6 65 2.5 NW 19 30 10 16 1009.0 1009.0 0.0
04/09:30am 7.6 1.7 1.7 66 2.4 NNW 22 30 12 16 1009.6 1009.6 0.0
04/09:00am 7.3 1.7 1.4 66 2.4 NW 20 26 11 14 1010.1 1010.1 4.4
04/08:30am 7.0 1.4 0.9 65 2.4 NW 20 33 11 18 1010.8 1010.8 4.4
04/08:00am 7.0 0.2 0.7 64 2.5 WNW 26 37 14 20 1010.9 1010.9 4.4
04/07:30am 6.9 0.1 1.0 66 2.3 WNW 26 37 14 20 1011.2 1011.2 4.4
04/07:00am 6.8 1.3 0.7 65 2.4 WNW 19 30 10 16 1011.3 1011.3 4.4
04/06:30am 6.5 1.7 0.0 63 2.5 WNW 15 28 8 15 1011.7 1011.7 4.4
04/06:00am 6.4 1.5 -0.3 62 2.6 WNW 15 30 8 16 1011.9 1011.9 4.4
04/05:30am 6.0 2.9 -0.1 65 2.3 NNW 6 13 3 7 1012.2 1012.2 4.4
04/05:00am 5.4 2.6 -0.6 65 2.3 WNW 4 11 2 6 1012.7 1012.7 4.4
04/04:30am 6.0 2.3 -0.1 65 2.3 NNW 9 15 5 8 1012.8 1012.8 4.4
04/04:00am 4.7 2.3 -0.5 69 1.9 WNW 2 7 1 4 1013.2 1013.2 4.4
04/03:30am 5.5 2.2 0.3 69 2.0 NW 7 11 4 6 1013.4 1013.4 4.4
04/03:00am 5.1 1.7 -0.5 67 2.1 WNW 7 13 4 7 1013.9 1013.9 4.4
04/02:30am 5.3 1.5 -0.7 65 2.2 NW 9 17 5 9 1014.4 1014.4 4.4
04/02:00am 5.1 1.7 -0.7 66 2.2 WNW 7 11 4 6 1015.0 1015.0 4.4
04/01:30am 5.5 1.8 0.1 68 2.1 NNW 9 13 5 7 1015.1 1015.1 4.4
04/01:00am 5.4 0.5 -0.4 66 2.2 NW 15 17 8 9 1015.3 1015.3 4.4
04/12:30am 5.4 1.0 0.4 70 1.9 NNW 13 15 7 8 1015.8 1015.8 4.4
04/12:00am 5.3 0.9 0.3 70 1.9 NW 13 17 7 9 1016.1 1016.1 4.4
 
Date/Time
EST
Tmp

°C
App
Tmp
°C
Dew
Point
°C
Rel
Hum
%
Delta-T

°C
Wind Press
QNH
hPa
Press
MSL
hPa
Rain
since
9 am
mm
Dir
 
Spd
km/h
Gust
km/h
Spd
kts
Gust
kts
03/11:30pm 4.8 -1.0 0.0 71 1.8 W 20 26 11 14 1016.0 1016.0 4.4
03/11:00pm 5.4 -0.7 0.2 69 2.0 WNW 22 28 12 15 1016.0 1016.0 4.4
03/10:30pm 4.9 -0.6 0.5 73 1.7 W 19 24 10 13 1016.0 1016.0 4.4
03/10:00pm 4.7 -1.0 0.8 76 1.5 W 20 24 11 13 1016.1 1016.1 4.4
03/09:30pm 5.0 -1.7 1.5 78 1.4 WNW 26 32 14 17 1016.0 1016.0 4.4
03/09:00pm 4.7 -1.6 1.7 81 1.2 WNW 24 30 13 16 1015.6 1015.6 4.4
03/08:30pm 4.9 1.1 1.9 81 1.2 NW 11 15 6 8 1015.6 1015.6 4.4
03/08:00pm 5.1 -0.5 1.4 77 1.5 SW 20 37 11 20 1015.0 1015.0 4.4
03/07:30pm 4.8 -2.6 1.7 80 1.2 WSW 30 37 16 20 1014.5 1014.5 4.4
03/07:00pm 5.3 -1.0 1.8 78 1.4 WSW 24 33 13 18 1014.4 1014.4 4.4
03/06:30pm 4.8 -0.1 2.2 83 1.0 SW 17 30 9 16 1013.7 1013.7 4.4
03/06:00pm 4.9 0.4 2.4 84 1.0 SW 15 20 8 11 1013.2 1013.2 4.2
03/05:30pm 4.9 -0.4 2.8 86 0.9 SW 20 26 11 14 1012.4 1012.4 4.0
03/05:00pm 5.5 -1.8 2.5 81 1.2 SW 30 39 16 21 1011.7 1011.7 2.8
03/04:30pm 5.1 -3.6 2.3 82 1.1 SW 37 59 20 32 1010.2 1010.2 2.6
03/04:20pm 5.1 -2.2 2.6 84 1.0 SW 30 50 16 27 1010.3 1010.3 2.4
03/04:00pm 5.6 -1.6 2.9 83 1.1 WSW 30 37 16 20 1009.3 1009.3 1.6
03/03:36pm 5.3 -2.9 2.7 83 1.1 SW 35 56 19 30 1008.6 1008.6 1.2
03/03:30pm 5.1 -2.6 2.5 83 1.1 SW 32 48 17 26 1008.5 1008.5 1.2
03/03:29pm 5.1 -2.2 2.6 84 1.0 SW 30 48 16 26 1008.6 1008.6 1.2
03/03:00pm 5.4 -2.9 2.4 81 1.2 WSW 35 52 19 28 1007.3 1007.3 0.8
03/02:57pm 5.6 -2.1 2.4 80 1.3 WSW 32 52 17 28 1007.1 1007.1 0.8
03/02:37pm 5.1 -1.9 2.1 81 1.2 W 28 44 15 24 1006.6 1006.6 0.6
03/02:30pm 4.9 -0.3 2.4 84 1.0 W 19 30 10 16 1006.7 1006.7 0.6
03/02:01pm 4.7 -4.4 2.1 83 1.0 W 39 57 21 31 1005.8 1005.8 0.4
03/02:00pm 5.0 -3.6 2.4 83 1.1 W 37 48 20 26 1005.7 1005.7 0.4
03/01:30pm 5.3 -2.2 1.2 75 1.6 W 30 63 16 34 1004.8 1004.8 0.2
03/01:13pm 6.8 -1.2 1.9 71 2.0 WSW 33 52 18 28 1004.4 1004.4 0.2
03/01:00pm 5.8 -2.7 1.2 72 1.8 W 35 50 19 27 1003.7 1003.7 0.2
03/12:57pm 5.9 -1.6 1.1 71 1.9 W 30 50 16 27 1003.8 1003.8 0.2
03/12:46pm 6.0 -2.1 1.3 72 1.9 W 33 46 18 25 1003.8 1003.8 0.2
03/12:42pm 6.6 -2.1 1.9 72 1.9 WSW 37 57 20 31 1003.6 1003.6 0.2
03/12:30pm 6.5 -3.1 1.0 68 2.2 WSW 41 57 22 31 1003.0 1003.0 0.2
03/12:21pm 6.9 -0.1 2.0 71 2.0 WSW 28 46 15 25 1002.8 1002.8 0.2
03/12:00pm 5.9 -1.2 1.1 71 1.9 WSW 28 39 15 21 1002.8 1002.8 0.2
03/11:30am 5.3 -1.2 2.5 82 1.1 W 26 37 14 20 1002.6 1002.6 0.2
03/11:00am 3.5 -3.6 1.5 87 0.8 W 28 43 15 23 1002.4 1002.4 0.2
03/10:30am 5.1 -4.0 1.6 78 1.4 W 39 46 21 25 1001.7 1001.8 0.0
03/10:00am 4.6 -3.5 1.1 78 1.4 W 33 43 18 23 1000.7 1000.8 0.0
03/09:30am 4.2 -5.1 0.9 79 1.3 W 39 52 21 28 1000.3 1000.4 0.0
03/09:00am 4.4 -4.1 0.6 76 1.5 W 35 46 19 25 999.8 999.9 10.4
03/08:30am 3.2 -3.0 -0.1 79 1.2 WNW 22 30 12 16 999.7 999.8 10.4
03/08:00am 3.0 -5.0 0.1 81 1.1 WNW 32 41 17 22 999.0 999.1 10.4
03/07:30am 2.4 -4.5 0.3 86 0.8 WNW 26 39 14 21 998.7 998.8 9.4
03/07:00am 2.1 -3.4 0.8 91 0.5 NNW 19 24 10 13 998.3 998.4 9.2
03/06:30am 1.2 -6.9 -0.6 88 0.6 WSW 32 46 17 25 998.6 998.7 9.0
03/06:00am 3.0 -5.6 0.2 82 1.1 W 35 48 19 26 997.1 997.2 8.8
03/05:30am 1.5 -6.6 -0.3 88 0.7 W 32 46 17 25 996.9 997.0 8.6
03/05:11am 3.2 -4.9 -0.1 79 1.2 WNW 32 54 17 29 996.9 997.0 8.2
03/05:00am 3.0 -3.9 -0.1 80 1.2 W 26 33 14 18 996.1 996.2 8.2
03/04:30am 3.0 -3.1 0.4 83 1.0 WNW 22 33 12 18 996.0 996.0 8.2
03/04:00am 3.1 -3.3 1.0 86 0.8 W 24 32 13 17 995.9 995.9 8.2
03/03:30am 3.1 -5.0 0.7 84 0.9 WSW 33 50 18 27 995.3 995.3 8.0
03/03:05am 3.8 -3.4 0.5 79 1.3 WNW 28 46 15 25 994.7 994.7 7.8
03/03:00am 4.1 -2.0 0.6 78 1.4 WNW 22 32 12 17 994.6 994.6 7.8
03/02:30am 4.3 -2.2 0.5 76 1.5 WNW 24 33 13 18 994.7 994.7 7.8
03/02:00am 4.0 -2.5 0.2 76 1.5 WSW 24 32 13 17 994.5 994.5 7.8
03/01:30am 4.6 -3.0 0.6 75 1.5 W 30 43 16 23 994.4 994.4 7.8
03/01:00am 4.1 -2.7 1.0 80 1.2 W 26 35 14 19 993.7 993.7 7.8
03/12:30am 3.8 -1.5 2.0 88 0.7 N 19 24 10 13 993.6 993.6 7.8
03/12:00am 3.9 -1.4 1.8 86 0.8 NNW 19 28 10 15 994.2 994.2 7.8
 
Date/Time
EST
Tmp

°C
App
Tmp
°C
Dew
Point
°C
Rel
Hum
%
Delta-T

°C
Wind Press
QNH
hPa
Press
MSL
hPa
Rain
since
9 am
mm
Dir
 
Spd
km/h
Gust
km/h
Spd
kts
Gust
kts
02/11:30pm 3.8 -2.5 1.7 86 0.8 WNW 24 35 13 19 994.4 994.4 7.6
02/11:00pm 3.7 -1.8 1.6 86 0.8 NNW 20 39 11 21 994.5 994.5 7.6
02/10:30pm 3.5 -0.7 1.9 89 0.6 NW 13 19 7 10 994.5 994.5 7.2
02/10:00pm 3.5 -2.9 1.2 85 0.9 WNW 24 39 13 21 994.9 994.9 6.2
02/09:45pm 4.5 -2.3 0.8 77 1.4 NW 26 43 14 23 995.3 995.3 3.6
02/09:30pm 5.7 1.0 1.2 73 1.8 NNW 15 24 8 13 994.5 994.5 3.0
02/09:00pm 4.8 1.2 0.4 73 1.7 W 9 17 5 9 994.5 994.5 3.0
02/08:30pm 5.8 1.4 0.4 68 2.1 NW 13 20 7 11 995.2 995.2 3.0
02/08:00pm 4.9 -1.1 1.0 76 1.5 WNW 22 32 12 17 995.5 995.5 3.0
02/07:30pm 4.7 -1.6 1.7 81 1.2 WNW 24 35 13 19 995.9 995.9 2.8
02/07:00pm 5.3 -1.8 1.2 75 1.6 NW 28 52 15 28 995.8 995.8 2.4
02/06:30pm 4.7 -0.7 1.0 77 1.4 WNW 19 26 10 14 995.6 995.6 2.4
02/06:00pm 4.6 -0.8 1.1 78 1.4 NW 19 30 10 16 996.0 996.0 2.4
02/05:49pm 4.4 -1.9 1.4 81 1.2 W 24 41 13 22 996.0 996.0 2.4
02/05:35pm 4.1 -5.6 0.6 78 1.3 W 41 61 22 33 996.0 996.0 2.2
02/05:30pm 4.7 -5.3 0.7 75 1.5 W 43 61 23 33 996.1 996.2 2.0
02/05:00pm 5.4 -4.0 0.0 68 2.1 W 39 50 21 27 995.1 995.1 2.0
02/04:30pm 5.8 -2.8 0.4 68 2.1 W 35 48 19 26 994.9 994.9 2.0
02/04:00pm 6.1 0.3 0.2 66 2.3 WNW 20 35 11 19 994.7 994.7 2.0
02/03:30pm 5.7 0.1 -0.1 66 2.2 WNW 19 30 10 16 994.8 994.8 2.0
02/03:00pm 5.7 -1.3 2.0 77 1.5 WSW 28 41 15 22 995.5 995.5 2.0
02/02:30pm 5.9 1.4 2.2 77 1.5 WNW 15 28 8 15 995.3 995.3 2.0
02/02:12pm 5.8 -2.0 1.9 76 1.6 W 32 52 17 28 995.1 995.1 2.0
02/02:00pm 6.2 -1.1 2.3 76 1.6 W 30 41 16 22 995.1 995.1 2.0
02/01:30pm 6.8 0.5 3.8 81 1.3 W 26 33 14 18 994.9 994.9 2.0
02/01:00pm 6.8 0.6 4.3 84 1.1 W 26 35 14 19 994.6 994.6 2.0

Latest Capital City Observations: Canberra | Sydney | Melbourne | Brisbane | Adelaide | Perth | Hobart | Darwin

Other Formats:

Comma delimited format used in spreadsheet applications
http://www.bom.gov.au/fwo/IDT60901/IDT60901.94988.axf

JavaScript Object Notation format (JSON) in row-major order
http://www.bom.gov.au/fwo/IDT60901/IDT60901.94988.json